sensor_id;sensor_type;location;lat;lon;timestamp;P1;durP1;ratioP1;P2;durP2;ratioP2
32399;SDS011;45045;45.440;9.178;2023-09-12T00:01:40;9.88;;;7.63;;
32399;SDS011;45045;45.440;9.178;2023-09-12T00:04:06;11.35;;;8.05;;
32399;SDS011;45045;45.440;9.178;2023-09-12T00:06:31;10.65;;;7.05;;
32399;SDS011;45045;45.440;9.178;2023-09-12T00:08:57;10.07;;;7.30;;
32399;SDS011;45045;45.440;9.178;2023-09-12T00:11:23;9.50;;;7.50;;
32399;SDS011;45045;45.440;9.178;2023-09-12T00:13:50;12.18;;;7.72;;
32399;SDS011;45045;45.440;9.178;2023-09-12T00:16:17;9.57;;;8.05;;
32399;SDS011;45045;45.440;9.178;2023-09-12T00:18:42;10.77;;;7.63;;
32399;SDS011;45045;45.440;9.178;2023-09-12T00:21:08;9.35;;;7.55;;
32399;SDS011;45045;45.440;9.178;2023-09-12T00:23:34;12.00;;;8.07;;
32399;SDS011;45045;45.440;9.178;2023-09-12T00:26:00;11.25;;;7.53;;
32399;SDS011;45045;45.440;9.178;2023-09-12T00:28:25;12.50;;;7.70;;
32399;SDS011;45045;45.440;9.178;2023-09-12T00:30:51;11.85;;;8.25;;
32399;SDS011;45045;45.440;9.178;2023-09-12T00:33:17;11.63;;;7.70;;
32399;SDS011;45045;45.440;9.178;2023-09-12T00:35:43;11.20;;;8.23;;
32399;SDS011;45045;45.440;9.178;2023-09-12T00:38:09;10.85;;;7.88;;
32399;SDS011;45045;45.440;9.178;2023-09-12T00:40:35;12.02;;;7.95;;
32399;SDS011;45045;45.440;9.178;2023-09-12T00:43:01;11.60;;;7.85;;
32399;SDS011;45045;45.440;9.178;2023-09-12T00:45:26;9.02;;;7.85;;
32399;SDS011;45045;45.440;9.178;2023-09-12T00:47:52;10.18;;;7.93;;
32399;SDS011;45045;45.440;9.178;2023-09-12T00:50:18;10.82;;;8.10;;
32399;SDS011;45045;45.440;9.178;2023-09-12T00:52:46;13.43;;;7.75;;
32399;SDS011;45045;45.440;9.178;2023-09-12T00:55:12;10.05;;;7.57;;
32399;SDS011;45045;45.440;9.178;2023-09-12T00:57:38;12.32;;;7.50;;
32399;SDS011;45045;45.440;9.178;2023-09-12T01:00:05;12.10;;;7.95;;
32399;SDS011;45045;45.440;9.178;2023-09-12T01:02:40;10.63;;;7.75;;
32399;SDS011;45045;45.440;9.178;2023-09-12T01:05:07;9.30;;;7.95;;
32399;SDS011;45045;45.440;9.178;2023-09-12T01:07:34;10.82;;;8.25;;
32399;SDS011;45045;45.440;9.178;2023-09-12T01:10:04;9.90;;;7.82;;
32399;SDS011;45045;45.440;9.178;2023-09-12T01:12:30;12.77;;;8.40;;
32399;SDS011;45045;45.440;9.178;2023-09-12T01:14:56;12.70;;;8.15;;
32399;SDS011;45045;45.440;9.178;2023-09-12T01:17:22;16.90;;;8.50;;
32399;SDS011;45045;45.440;9.178;2023-09-12T01:19:48;14.30;;;9.07;;
32399;SDS011;45045;45.440;9.178;2023-09-12T01:22:16;12.25;;;8.43;;
32399;SDS011;45045;45.440;9.178;2023-09-12T01:25:00;14.80;;;9.20;;
32399;SDS011;45045;45.440;9.178;2023-09-12T01:27:46;15.18;;;9.55;;
32399;SDS011;45045;45.440;9.178;2023-09-12T01:30:17;15.40;;;8.77;;
32399;SDS011;45045;45.440;9.178;2023-09-12T01:32:45;11.95;;;8.52;;
32399;SDS011;45045;45.440;9.178;2023-09-12T01:35:11;11.32;;;8.93;;
32399;SDS011;45045;45.440;9.178;2023-09-12T01:37:37;13.18;;;9.32;;
32399;SDS011;45045;45.440;9.178;2023-09-12T01:40:02;14.80;;;9.40;;
32399;SDS011;45045;45.440;9.178;2023-09-12T01:42:30;13.13;;;9.10;;
32399;SDS011;45045;45.440;9.178;2023-09-12T01:45:01;15.05;;;9.23;;
32399;SDS011;45045;45.440;9.178;2023-09-12T01:47:27;10.77;;;9.20;;
32399;SDS011;45045;45.440;9.178;2023-09-12T01:49:55;15.40;;;10.07;;
32399;SDS011;45045;45.440;9.178;2023-09-12T01:52:23;11.00;;;9.10;;
32399;SDS011;45045;45.440;9.178;2023-09-12T01:54:50;14.35;;;9.50;;
32399;SDS011;45045;45.440;9.178;2023-09-12T01:57:17;16.35;;;9.50;;
32399;SDS011;45045;45.440;9.178;2023-09-12T01:59:46;14.80;;;9.52;;
32399;SDS011;45045;45.440;9.178;2023-09-12T02:02:13;12.73;;;9.38;;
32399;SDS011;45045;45.440;9.178;2023-09-12T02:04:39;13.43;;;8.88;;
32399;SDS011;45045;45.440;9.178;2023-09-12T02:07:04;13.32;;;9.63;;
32399;SDS011;45045;45.440;9.178;2023-09-12T02:09:30;13.60;;;9.50;;
32399;SDS011;45045;45.440;9.178;2023-09-12T02:11:56;12.40;;;9.23;;
32399;SDS011;45045;45.440;9.178;2023-09-12T02:14:21;12.32;;;9.70;;
32399;SDS011;45045;45.440;9.178;2023-09-12T02:16:47;15.80;;;10.10;;
32399;SDS011;45045;45.440;9.178;2023-09-12T02:19:12;14.90;;;9.48;;
32399;SDS011;45045;45.440;9.178;2023-09-12T02:21:38;12.60;;;9.95;;
32399;SDS011;45045;45.440;9.178;2023-09-12T02:24:04;12.70;;;9.35;;
32399;SDS011;45045;45.440;9.178;2023-09-12T02:26:30;16.45;;;9.90;;
32399;SDS011;45045;45.440;9.178;2023-09-12T02:29:01;14.45;;;9.35;;
32399;SDS011;45045;45.440;9.178;2023-09-12T02:31:27;11.93;;;8.93;;
32399;SDS011;45045;45.440;9.178;2023-09-12T02:33:53;14.40;;;9.60;;
32399;SDS011;45045;45.440;9.178;2023-09-12T02:36:19;12.98;;;10.07;;
32399;SDS011;45045;45.440;9.178;2023-09-12T02:38:45;16.80;;;10.10;;
32399;SDS011;45045;45.440;9.178;2023-09-12T02:41:10;12.88;;;9.88;;
32399;SDS011;45045;45.440;9.178;2023-09-12T02:43:36;12.65;;;9.90;;
32399;SDS011;45045;45.440;9.178;2023-09-12T02:46:02;13.88;;;9.63;;
32399;SDS011;45045;45.440;9.178;2023-09-12T02:48:27;13.77;;;9.18;;
32399;SDS011;45045;45.440;9.178;2023-09-12T02:50:53;13.95;;;10.18;;
32399;SDS011;45045;45.440;9.178;2023-09-12T02:53:19;12.52;;;9.43;;
32399;SDS011;45045;45.440;9.178;2023-09-12T02:55:44;12.20;;;9.43;;
32399;SDS011;45045;45.440;9.178;2023-09-12T02:58:10;13.30;;;10.02;;
32399;SDS011;45045;45.440;9.178;2023-09-12T03:00:39;12.50;;;9.40;;
32399;SDS011;45045;45.440;9.178;2023-09-12T03:03:07;14.65;;;9.88;;
32399;SDS011;45045;45.440;9.178;2023-09-12T03:05:34;14.75;;;9.55;;
32399;SDS011;45045;45.440;9.178;2023-09-12T03:08:00;13.02;;;10.38;;
32399;SDS011;45045;45.440;9.178;2023-09-12T03:10:27;12.90;;;11.02;;
32399;SDS011;45045;45.440;9.178;2023-09-12T03:12:53;16.45;;;13.70;;
32399;SDS011;45045;45.440;9.178;2023-09-12T03:15:18;17.38;;;14.18;;
32399;SDS011;45045;45.440;9.178;2023-09-12T03:17:44;17.05;;;14.00;;
32399;SDS011;45045;45.440;9.178;2023-09-12T03:20:10;17.38;;;13.48;;
32399;SDS011;45045;45.440;9.178;2023-09-12T03:22:36;19.95;;;15.98;;
32399;SDS011;45045;45.440;9.178;2023-09-12T03:25:03;18.30;;;16.17;;
32399;SDS011;45045;45.440;9.178;2023-09-12T03:27:29;22.35;;;16.10;;
32399;SDS011;45045;45.440;9.178;2023-09-12T03:29:55;19.40;;;16.90;;
32399;SDS011;45045;45.440;9.178;2023-09-12T03:32:20;21.63;;;17.38;;
32399;SDS011;45045;45.440;9.178;2023-09-12T03:34:46;21.50;;;18.80;;
32399;SDS011;45045;45.440;9.178;2023-09-12T03:37:11;23.67;;;19.67;;
32399;SDS011;45045;45.440;9.178;2023-09-12T03:39:37;25.95;;;19.85;;
32399;SDS011;45045;45.440;9.178;2023-09-12T03:42:03;24.48;;;19.45;;
32399;SDS011;45045;45.440;9.178;2023-09-12T03:44:29;26.17;;;18.83;;
32399;SDS011;45045;45.440;9.178;2023-09-12T03:46:55;26.00;;;20.15;;
32399;SDS011;45045;45.440;9.178;2023-09-12T03:49:21;24.88;;;20.98;;
32399;SDS011;45045;45.440;9.178;2023-09-12T03:51:47;23.70;;;19.92;;
32399;SDS011;45045;45.440;9.178;2023-09-12T03:54:13;23.40;;;21.00;;
32399;SDS011;45045;45.440;9.178;2023-09-12T03:56:38;25.80;;;21.48;;
32399;SDS011;45045;45.440;9.178;2023-09-12T03:59:04;25.80;;;22.25;;
32399;SDS011;45045;45.440;9.178;2023-09-12T04:01:30;25.73;;;22.70;;
32399;SDS011;45045;45.440;9.178;2023-09-12T04:03:55;26.33;;;23.42;;
32399;SDS011;45045;45.440;9.178;2023-09-12T04:06:21;27.13;;;23.52;;
32399;SDS011;45045;45.440;9.178;2023-09-12T04:08:47;28.92;;;24.83;;
32399;SDS011;45045;45.440;9.178;2023-09-12T04:11:12;29.30;;;25.13;;
32399;SDS011;45045;45.440;9.178;2023-09-12T04:13:38;27.77;;;24.63;;
32399;SDS011;45045;45.440;9.178;2023-09-12T04:16:12;28.30;;;25.05;;
32399;SDS011;45045;45.440;9.178;2023-09-12T04:18:38;31.50;;;25.30;;
32399;SDS011;45045;45.440;9.178;2023-09-12T04:21:03;29.13;;;24.55;;
32399;SDS011;45045;45.440;9.178;2023-09-12T04:23:29;29.40;;;25.05;;
32399;SDS011;45045;45.440;9.178;2023-09-12T04:25:55;29.10;;;24.70;;
32399;SDS011;45045;45.440;9.178;2023-09-12T04:28:20;27.85;;;24.88;;
32399;SDS011;45045;45.440;9.178;2023-09-12T04:30:46;26.48;;;23.67;;
32399;SDS011;45045;45.440;9.178;2023-09-12T04:33:12;27.15;;;24.05;;
32399;SDS011;45045;45.440;9.178;2023-09-12T04:35:37;27.42;;;24.55;;
32399;SDS011;45045;45.440;9.178;2023-09-12T04:38:03;27.17;;;23.45;;
32399;SDS011;45045;45.440;9.178;2023-09-12T04:40:29;26.95;;;24.05;;
32399;SDS011;45045;45.440;9.178;2023-09-12T04:42:54;28.98;;;24.25;;
32399;SDS011;45045;45.440;9.178;2023-09-12T04:45:20;26.15;;;22.90;;
32399;SDS011;45045;45.440;9.178;2023-09-12T04:47:46;30.17;;;23.40;;
32399;SDS011;45045;45.440;9.178;2023-09-12T04:50:11;32.35;;;24.55;;
32399;SDS011;45045;45.440;9.178;2023-09-12T04:52:37;27.63;;;24.73;;
32399;SDS011;45045;45.440;9.178;2023-09-12T04:55:03;28.85;;;24.35;;
32399;SDS011;45045;45.440;9.178;2023-09-12T04:57:29;30.30;;;25.73;;
32399;SDS011;45045;45.440;9.178;2023-09-12T04:59:56;27.45;;;24.58;;
32399;SDS011;45045;45.440;9.178;2023-09-12T05:02:23;27.50;;;24.50;;
32399;SDS011;45045;45.440;9.178;2023-09-12T05:04:49;28.92;;;25.92;;
32399;SDS011;45045;45.440;9.178;2023-09-12T05:07:15;32.33;;;25.95;;
32399;SDS011;45045;45.440;9.178;2023-09-12T05:09:40;32.17;;;25.75;;
32399;SDS011;45045;45.440;9.178;2023-09-12T05:12:06;29.88;;;26.65;;
32399;SDS011;45045;45.440;9.178;2023-09-12T05:14:32;31.27;;;27.17;;
32399;SDS011;45045;45.440;9.178;2023-09-12T05:16:57;33.05;;;28.25;;
32399;SDS011;45045;45.440;9.178;2023-09-12T05:19:23;31.17;;;26.58;;
32399;SDS011;45045;45.440;9.178;2023-09-12T05:21:50;32.17;;;27.33;;
32399;SDS011;45045;45.440;9.178;2023-09-12T05:24:16;33.15;;;27.15;;
32399;SDS011;45045;45.440;9.178;2023-09-12T05:26:42;31.90;;;27.58;;
32399;SDS011;45045;45.440;9.178;2023-09-12T05:29:07;32.03;;;27.67;;
32399;SDS011;45045;45.440;9.178;2023-09-12T05:31:33;30.70;;;27.40;;
32399;SDS011;45045;45.440;9.178;2023-09-12T05:33:58;32.95;;;28.00;;
32399;SDS011;45045;45.440;9.178;2023-09-12T05:36:24;31.65;;;28.15;;
32399;SDS011;45045;45.440;9.178;2023-09-12T05:38:50;34.35;;;30.63;;
32399;SDS011;45045;45.440;9.178;2023-09-12T05:41:15;35.15;;;31.40;;
32399;SDS011;45045;45.440;9.178;2023-09-12T05:43:41;38.13;;;30.80;;
32399;SDS011;45045;45.440;9.178;2023-09-12T05:46:06;36.45;;;31.33;;
32399;SDS011;45045;45.440;9.178;2023-09-12T05:48:32;39.50;;;34.85;;
32399;SDS011;45045;45.440;9.178;2023-09-12T05:50:58;43.83;;;35.35;;
32399;SDS011;45045;45.440;9.178;2023-09-12T05:53:23;39.88;;;35.67;;
32399;SDS011;45045;45.440;9.178;2023-09-12T05:55:49;41.05;;;35.80;;
32399;SDS011;45045;45.440;9.178;2023-09-12T05:58:15;42.85;;;36.00;;
32399;SDS011;45045;45.440;9.178;2023-09-12T06:00:40;43.65;;;37.47;;
32399;SDS011;45045;45.440;9.178;2023-09-12T06:03:06;42.95;;;38.25;;
32399;SDS011;45045;45.440;9.178;2023-09-12T06:05:31;42.78;;;38.13;;
32399;SDS011;45045;45.440;9.178;2023-09-12T06:07:57;49.75;;;39.35;;
32399;SDS011;45045;45.440;9.178;2023-09-12T06:10:23;45.30;;;38.58;;
32399;SDS011;45045;45.440;9.178;2023-09-12T06:12:49;47.50;;;38.28;;
32399;SDS011;45045;45.440;9.178;2023-09-12T06:15:15;41.95;;;37.35;;
32399;SDS011;45045;45.440;9.178;2023-09-12T06:17:40;47.63;;;38.60;;
32399;SDS011;45045;45.440;9.178;2023-09-12T06:20:06;43.28;;;37.90;;
32399;SDS011;45045;45.440;9.178;2023-09-12T06:22:32;44.97;;;39.78;;
32399;SDS011;45045;45.440;9.178;2023-09-12T06:24:59;46.38;;;39.33;;
32399;SDS011;45045;45.440;9.178;2023-09-12T06:27:24;51.65;;;40.65;;
32399;SDS011;45045;45.440;9.178;2023-09-12T06:29:50;45.97;;;39.95;;
32399;SDS011;45045;45.440;9.178;2023-09-12T06:32:16;43.92;;;39.10;;
32399;SDS011;45045;45.440;9.178;2023-09-12T06:34:43;43.08;;;38.40;;
32399;SDS011;45045;45.440;9.178;2023-09-12T06:37:10;48.17;;;40.17;;
32399;SDS011;45045;45.440;9.178;2023-09-12T06:39:36;46.55;;;39.42;;
32399;SDS011;45045;45.440;9.178;2023-09-12T06:42:01;44.05;;;38.10;;
32399;SDS011;45045;45.440;9.178;2023-09-12T06:44:27;50.25;;;38.75;;
32399;SDS011;45045;45.440;9.178;2023-09-12T06:46:53;45.58;;;39.47;;
32399;SDS011;45045;45.440;9.178;2023-09-12T06:49:18;45.15;;;39.45;;
32399;SDS011;45045;45.440;9.178;2023-09-12T06:51:44;47.38;;;40.38;;
32399;SDS011;45045;45.440;9.178;2023-09-12T06:54:10;47.40;;;39.38;;
32399;SDS011;45045;45.440;9.178;2023-09-12T06:56:35;47.17;;;41.95;;
32399;SDS011;45045;45.440;9.178;2023-09-12T06:59:03;49.45;;;39.67;;
32399;SDS011;45045;45.440;9.178;2023-09-12T07:01:29;47.83;;;41.08;;
32399;SDS011;45045;45.440;9.178;2023-09-12T07:03:55;47.17;;;41.22;;
32399;SDS011;45045;45.440;9.178;2023-09-12T07:06:21;50.50;;;42.25;;
32399;SDS011;45045;45.440;9.178;2023-09-12T07:08:47;44.67;;;39.78;;
32399;SDS011;45045;45.440;9.178;2023-09-12T07:11:12;46.25;;;40.83;;
32399;SDS011;45045;45.440;9.178;2023-09-12T07:13:38;51.67;;;41.60;;
32399;SDS011;45045;45.440;9.178;2023-09-12T07:16:04;48.67;;;41.30;;
32399;SDS011;45045;45.440;9.178;2023-09-12T07:18:30;49.25;;;41.10;;
32399;SDS011;45045;45.440;9.178;2023-09-12T07:21:01;45.65;;;40.65;;
32399;SDS011;45045;45.440;9.178;2023-09-12T07:23:29;55.37;;;42.30;;
32399;SDS011;45045;45.440;9.178;2023-09-12T07:25:55;49.60;;;40.70;;
32399;SDS011;45045;45.440;9.178;2023-09-12T07:28:25;51.33;;;41.72;;
32399;SDS011;45045;45.440;9.178;2023-09-12T07:30:51;52.33;;;40.58;;
32399;SDS011;45045;45.440;9.178;2023-09-12T07:33:17;50.65;;;43.03;;
32399;SDS011;45045;45.440;9.178;2023-09-12T07:35:43;52.10;;;41.75;;
32399;SDS011;45045;45.440;9.178;2023-09-12T07:38:08;49.90;;;41.33;;
32399;SDS011;45045;45.440;9.178;2023-09-12T07:40:34;50.47;;;43.08;;
32399;SDS011;45045;45.440;9.178;2023-09-12T07:43:00;51.28;;;43.30;;
32399;SDS011;45045;45.440;9.178;2023-09-12T07:45:25;46.53;;;41.67;;
32399;SDS011;45045;45.440;9.178;2023-09-12T07:47:51;49.08;;;42.65;;
32399;SDS011;45045;45.440;9.178;2023-09-12T07:50:17;47.72;;;42.55;;
32399;SDS011;45045;45.440;9.178;2023-09-12T07:52:42;49.55;;;42.58;;
32399;SDS011;45045;45.440;9.178;2023-09-12T07:55:08;51.30;;;43.17;;
32399;SDS011;45045;45.440;9.178;2023-09-12T07:57:34;53.70;;;43.80;;
32399;SDS011;45045;45.440;9.178;2023-09-12T08:00:01;46.60;;;41.08;;
32399;SDS011;45045;45.440;9.178;2023-09-12T08:02:29;51.38;;;43.83;;
32399;SDS011;45045;45.440;9.178;2023-09-12T08:04:55;55.40;;;43.60;;
32399;SDS011;45045;45.440;9.178;2023-09-12T08:07:21;55.25;;;42.97;;
32399;SDS011;45045;45.440;9.178;2023-09-12T08:09:48;48.53;;;41.40;;
32399;SDS011;45045;45.440;9.178;2023-09-12T08:14:44;48.58;;;43.47;;
32399;SDS011;45045;45.440;9.178;2023-09-12T08:17:11;52.35;;;44.95;;
32399;SDS011;45045;45.440;9.178;2023-09-12T08:19:37;47.75;;;42.58;;
32399;SDS011;45045;45.440;9.178;2023-09-12T08:22:03;46.88;;;42.05;;
32399;SDS011;45045;45.440;9.178;2023-09-12T08:24:28;55.08;;;42.65;;
32399;SDS011;45045;45.440;9.178;2023-09-12T08:26:54;47.67;;;42.50;;
32399;SDS011;45045;45.440;9.178;2023-09-12T08:29:20;47.63;;;41.35;;
32399;SDS011;45045;45.440;9.178;2023-09-12T08:31:46;55.13;;;44.17;;
32399;SDS011;45045;45.440;9.178;2023-09-12T08:34:14;50.30;;;42.53;;
32399;SDS011;45045;45.440;9.178;2023-09-12T08:36:40;47.97;;;42.38;;
32399;SDS011;45045;45.440;9.178;2023-09-12T08:39:05;46.13;;;41.13;;
32399;SDS011;45045;45.440;9.178;2023-09-12T08:41:36;47.88;;;42.50;;
32399;SDS011;45045;45.440;9.178;2023-09-12T08:44:03;47.40;;;39.38;;
32399;SDS011;45045;45.440;9.178;2023-09-12T08:46:30;47.28;;;38.90;;
32399;SDS011;45045;45.440;9.178;2023-09-12T08:48:56;39.00;;;32.22;;
32399;SDS011;45045;45.440;9.178;2023-09-12T08:51:23;34.85;;;29.42;;
32399;SDS011;45045;45.440;9.178;2023-09-12T08:53:52;37.53;;;33.38;;
32399;SDS011;45045;45.440;9.178;2023-09-12T08:56:18;35.15;;;29.35;;
32399;SDS011;45045;45.440;9.178;2023-09-12T08:58:44;26.10;;;23.00;;
32399;SDS011;45045;45.440;9.178;2023-09-12T09:01:11;24.88;;;21.10;;
32399;SDS011;45045;45.440;9.178;2023-09-12T09:03:42;19.00;;;16.90;;
32399;SDS011;45045;45.440;9.178;2023-09-12T09:06:09;17.77;;;13.85;;
32399;SDS011;45045;45.440;9.178;2023-09-12T09:08:36;20.73;;;17.33;;
32399;SDS011;45045;45.440;9.178;2023-09-12T09:11:02;21.45;;;16.02;;
32399;SDS011;45045;45.440;9.178;2023-09-12T09:13:28;18.50;;;13.98;;
32399;SDS011;45045;45.440;9.178;2023-09-12T09:16:37;15.40;;;11.90;;
32399;SDS011;45045;45.440;9.178;2023-09-12T09:21:23;13.48;;;10.27;;
32399;SDS011;45045;45.440;9.178;2023-09-12T09:23:55;14.55;;;9.20;;
32399;SDS011;45045;45.440;9.178;2023-09-12T09:26:23;10.85;;;7.40;;
32399;SDS011;45045;45.440;9.178;2023-09-12T09:29:06;11.93;;;7.07;;
32399;SDS011;45045;45.440;9.178;2023-09-12T09:31:34;10.35;;;5.97;;
32399;SDS011;45045;45.440;9.178;2023-09-12T09:34:01;10.02;;;5.78;;
32399;SDS011;45045;45.440;9.178;2023-09-12T09:36:27;11.68;;;6.78;;
32399;SDS011;45045;45.440;9.178;2023-09-12T09:38:54;7.78;;;6.97;;
32399;SDS011;45045;45.440;9.178;2023-09-12T09:41:21;9.98;;;7.03;;
32399;SDS011;45045;45.440;9.178;2023-09-12T09:43:50;8.77;;;7.53;;
32399;SDS011;45045;45.440;9.178;2023-09-12T09:46:17;11.52;;;8.45;;
32399;SDS011;45045;45.440;9.178;2023-09-12T09:48:49;10.55;;;7.55;;
32399;SDS011;45045;45.440;9.178;2023-09-12T09:51:16;8.98;;;7.22;;
32399;SDS011;45045;45.440;9.178;2023-09-12T09:53:42;11.15;;;8.70;;
32399;SDS011;45045;45.440;9.178;2023-09-12T09:56:11;9.35;;;7.25;;
32399;SDS011;45045;45.440;9.178;2023-09-12T09:58:50;11.75;;;8.10;;
32399;SDS011;45045;45.440;9.178;2023-09-12T10:03:46;14.25;;;7.78;;
32399;SDS011;45045;45.440;9.178;2023-09-12T10:06:13;10.18;;;7.60;;
32399;SDS011;45045;45.440;9.178;2023-09-12T10:08:42;11.35;;;8.07;;
32399;SDS011;45045;45.440;9.178;2023-09-12T10:11:10;12.20;;;8.32;;
32399;SDS011;45045;45.440;9.178;2023-09-12T10:14:02;11.45;;;7.88;;
32399;SDS011;45045;45.440;9.178;2023-09-12T10:16:29;11.35;;;8.30;;
32399;SDS011;45045;45.440;9.178;2023-09-12T10:19:16;13.23;;;9.45;;
32399;SDS011;45045;45.440;9.178;2023-09-12T10:22:09;10.10;;;8.70;;
32399;SDS011;45045;45.440;9.178;2023-09-12T10:24:49;11.05;;;9.05;;
32399;SDS011;45045;45.440;9.178;2023-09-12T10:27:15;12.25;;;8.23;;
32399;SDS011;45045;45.440;9.178;2023-09-12T10:29:43;9.90;;;7.60;;
32399;SDS011;45045;45.440;9.178;2023-09-12T10:32:12;15.20;;;7.75;;
32399;SDS011;45045;45.440;9.178;2023-09-12T10:34:40;12.82;;;8.07;;
32399;SDS011;45045;45.440;9.178;2023-09-12T10:37:10;11.30;;;7.93;;
32399;SDS011;45045;45.440;9.178;2023-09-12T10:39:40;15.68;;;7.70;;
32399;SDS011;45045;45.440;9.178;2023-09-12T10:42:08;10.60;;;7.95;;
32399;SDS011;45045;45.440;9.178;2023-09-12T10:44:34;9.80;;;7.00;;
32399;SDS011;45045;45.440;9.178;2023-09-12T10:47:00;10.00;;;6.68;;
32399;SDS011;45045;45.440;9.178;2023-09-12T10:49:29;12.73;;;6.63;;
32399;SDS011;45045;45.440;9.178;2023-09-12T10:51:55;10.57;;;6.63;;
32399;SDS011;45045;45.440;9.178;2023-09-12T10:54:25;18.60;;;7.30;;
32399;SDS011;45045;45.440;9.178;2023-09-12T10:57:02;7.60;;;6.68;;
32399;SDS011;45045;45.440;9.178;2023-09-12T10:59:28;9.77;;;6.93;;
32399;SDS011;45045;45.440;9.178;2023-09-12T11:02:00;16.27;;;7.97;;
32399;SDS011;45045;45.440;9.178;2023-09-12T11:05:00;9.38;;;7.05;;
32399;SDS011;45045;45.440;9.178;2023-09-12T11:07:46;11.70;;;7.07;;
32399;SDS011;45045;45.440;9.178;2023-09-12T11:12:39;10.07;;;6.50;;
32399;SDS011;45045;45.440;9.178;2023-09-12T11:15:06;10.07;;;6.05;;
32399;SDS011;45045;45.440;9.178;2023-09-12T11:17:46;8.85;;;6.85;;
32399;SDS011;45045;45.440;9.178;2023-09-12T11:20:13;9.55;;;5.90;;
32399;SDS011;45045;45.440;9.178;2023-09-12T11:22:43;9.32;;;5.47;;
32399;SDS011;45045;45.440;9.178;2023-09-12T11:25:20;8.40;;;5.53;;
32399;SDS011;45045;45.440;9.178;2023-09-12T11:30:22;7.15;;;5.50;;
32399;SDS011;45045;45.440;9.178;2023-09-12T11:32:50;7.10;;;5.25;;
32399;SDS011;45045;45.440;9.178;2023-09-12T11:35:24;8.52;;;5.32;;
32399;SDS011;45045;45.440;9.178;2023-09-12T11:37:57;7.63;;;5.00;;
32399;SDS011;45045;45.440;9.178;2023-09-12T11:40:25;8.90;;;5.40;;
32399;SDS011;45045;45.440;9.178;2023-09-12T11:43:06;11.18;;;5.95;;
32399;SDS011;45045;45.440;9.178;2023-09-12T11:45:31;12.18;;;5.63;;
32399;SDS011;45045;45.440;9.178;2023-09-12T11:47:58;9.38;;;5.60;;
32399;SDS011;45045;45.440;9.178;2023-09-12T11:50:31;7.68;;;5.32;;
32399;SDS011;45045;45.440;9.178;2023-09-12T11:53:05;11.05;;;5.22;;
32399;SDS011;45045;45.440;9.178;2023-09-12T11:55:54;10.68;;;5.32;;
32399;SDS011;45045;45.440;9.178;2023-09-12T11:58:27;8.35;;;4.82;;
32399;SDS011;45045;45.440;9.178;2023-09-12T12:00:54;6.90;;;5.30;;
32399;SDS011;45045;45.440;9.178;2023-09-12T12:03:21;8.50;;;5.95;;
32399;SDS011;45045;45.440;9.178;2023-09-12T12:05:48;6.82;;;5.18;;
32399;SDS011;45045;45.440;9.178;2023-09-12T12:08:14;9.90;;;5.10;;
32399;SDS011;45045;45.440;9.178;2023-09-12T12:10:49;7.93;;;5.27;;
32399;SDS011;45045;45.440;9.178;2023-09-12T12:13:18;7.65;;;4.80;;
32399;SDS011;45045;45.440;9.178;2023-09-12T12:15:45;9.40;;;4.80;;
32399;SDS011;45045;45.440;9.178;2023-09-12T12:18:10;9.02;;;5.32;;
32399;SDS011;45045;45.440;9.178;2023-09-12T12:20:36;9.40;;;5.32;;
32399;SDS011;45045;45.440;9.178;2023-09-12T12:23:02;11.20;;;6.20;;
32399;SDS011;45045;45.440;9.178;2023-09-12T12:25:31;7.13;;;4.63;;
32399;SDS011;45045;45.440;9.178;2023-09-12T12:27:59;7.35;;;4.75;;
32399;SDS011;45045;45.440;9.178;2023-09-12T12:30:25;8.30;;;4.93;;
32399;SDS011;45045;45.440;9.178;2023-09-12T12:32:54;10.45;;;5.22;;
32399;SDS011;45045;45.440;9.178;2023-09-12T12:35:20;8.00;;;4.55;;
32399;SDS011;45045;45.440;9.178;2023-09-12T12:37:50;6.78;;;4.60;;
32399;SDS011;45045;45.440;9.178;2023-09-12T12:40:19;6.60;;;4.78;;
32399;SDS011;45045;45.440;9.178;2023-09-12T12:42:45;7.47;;;4.93;;
32399;SDS011;45045;45.440;9.178;2023-09-12T12:45:23;7.85;;;4.90;;
32399;SDS011;45045;45.440;9.178;2023-09-12T12:48:00;6.75;;;4.50;;
32399;SDS011;45045;45.440;9.178;2023-09-12T12:50:26;8.13;;;6.30;;
32399;SDS011;45045;45.440;9.178;2023-09-12T12:52:52;8.70;;;4.90;;
32399;SDS011;45045;45.440;9.178;2023-09-12T12:55:19;8.68;;;5.15;;
32399;SDS011;45045;45.440;9.178;2023-09-12T12:57:47;13.40;;;5.28;;
32399;SDS011;45045;45.440;9.178;2023-09-12T13:00:17;8.60;;;5.25;;
32399;SDS011;45045;45.440;9.178;2023-09-12T13:02:44;12.48;;;4.88;;
32399;SDS011;45045;45.440;9.178;2023-09-12T13:07:51;7.18;;;5.22;;
32399;SDS011;45045;45.440;9.178;2023-09-12T13:10:17;9.07;;;5.32;;
32399;SDS011;45045;45.440;9.178;2023-09-12T13:12:44;6.85;;;4.97;;
32399;SDS011;45045;45.440;9.178;2023-09-12T13:15:12;9.25;;;5.07;;
32399;SDS011;45045;45.440;9.178;2023-09-12T13:17:38;8.50;;;5.35;;
32399;SDS011;45045;45.440;9.178;2023-09-12T13:20:05;10.50;;;4.95;;
32399;SDS011;45045;45.440;9.178;2023-09-12T13:22:33;13.38;;;6.50;;
32399;SDS011;45045;45.440;9.178;2023-09-12T13:25:00;7.97;;;5.03;;
32399;SDS011;45045;45.440;9.178;2023-09-12T13:27:26;12.18;;;5.68;;
32399;SDS011;45045;45.440;9.178;2023-09-12T13:29:51;9.13;;;5.40;;
32399;SDS011;45045;45.440;9.178;2023-09-12T13:32:17;7.90;;;5.30;;
32399;SDS011;45045;45.440;9.178;2023-09-12T13:34:43;10.52;;;4.85;;
32399;SDS011;45045;45.440;9.178;2023-09-12T13:37:12;7.63;;;5.40;;
32399;SDS011;45045;45.440;9.178;2023-09-12T13:39:37;8.85;;;5.78;;
32399;SDS011;45045;45.440;9.178;2023-09-12T13:42:05;6.93;;;5.40;;
32399;SDS011;45045;45.440;9.178;2023-09-12T13:44:33;9.30;;;5.80;;
32399;SDS011;45045;45.440;9.178;2023-09-12T13:46:59;10.88;;;5.63;;
32399;SDS011;45045;45.440;9.178;2023-09-12T13:49:24;11.75;;;5.57;;
32399;SDS011;45045;45.440;9.178;2023-09-12T13:51:50;9.43;;;5.70;;
32399;SDS011;45045;45.440;9.178;2023-09-12T13:54:15;9.95;;;5.80;;
32399;SDS011;45045;45.440;9.178;2023-09-12T13:56:41;12.27;;;5.95;;
32399;SDS011;45045;45.440;9.178;2023-09-12T13:59:07;9.40;;;5.28;;
32399;SDS011;45045;45.440;9.178;2023-09-12T14:01:33;10.25;;;7.07;;
32399;SDS011;45045;45.440;9.178;2023-09-12T14:03:59;10.77;;;6.80;;
32399;SDS011;45045;45.440;9.178;2023-09-12T14:06:24;15.25;;;6.60;;
32399;SDS011;45045;45.440;9.178;2023-09-12T14:08:51;12.48;;;6.88;;
32399;SDS011;45045;45.440;9.178;2023-09-12T14:11:17;10.30;;;5.50;;
32399;SDS011;45045;45.440;9.178;2023-09-12T14:13:43;6.90;;;5.10;;
32399;SDS011;45045;45.440;9.178;2023-09-12T14:16:08;7.88;;;6.10;;
32399;SDS011;45045;45.440;9.178;2023-09-12T14:18:34;11.25;;;5.80;;
32399;SDS011;45045;45.440;9.178;2023-09-12T14:21:00;7.25;;;5.28;;
32399;SDS011;45045;45.440;9.178;2023-09-12T14:23:26;11.32;;;5.72;;
32399;SDS011;45045;45.440;9.178;2023-09-12T14:25:51;7.50;;;5.22;;
32399;SDS011;45045;45.440;9.178;2023-09-12T14:28:17;9.90;;;6.30;;
32399;SDS011;45045;45.440;9.178;2023-09-12T14:30:43;10.18;;;5.97;;
32399;SDS011;45045;45.440;9.178;2023-09-12T14:33:13;10.30;;;5.72;;
32399;SDS011;45045;45.440;9.178;2023-09-12T14:35:39;9.43;;;5.43;;
32399;SDS011;45045;45.440;9.178;2023-09-12T14:38:06;6.65;;;5.07;;
32399;SDS011;45045;45.440;9.178;2023-09-12T14:40:32;6.97;;;5.72;;
32399;SDS011;45045;45.440;9.178;2023-09-12T14:42:58;9.93;;;7.28;;
32399;SDS011;45045;45.440;9.178;2023-09-12T14:45:23;12.07;;;5.55;;
32399;SDS011;45045;45.440;9.178;2023-09-12T14:47:50;9.20;;;5.78;;